createdAt,value
2022-12-01T00:01:08.793Z,18.00
2022-12-01T00:04:17.193Z,16.23
2022-12-01T00:07:25.585Z,17.67
2022-12-01T00:10:35.847Z,16.50
2022-12-01T00:13:44.171Z,17.50
2022-12-01T00:16:52.530Z,17.53
2022-12-01T00:20:01.006Z,18.27
2022-12-01T00:23:09.760Z,18.33
2022-12-01T00:26:21.013Z,17.63
2022-12-01T00:29:29.458Z,17.83
2022-12-01T00:32:37.725Z,19.87
2022-12-01T00:35:46.192Z,18.20
2022-12-01T00:38:55.424Z,17.93
2022-12-01T00:42:08.695Z,18.63
2022-12-01T00:45:21.322Z,18.43
2022-12-01T00:48:29.691Z,18.10
2022-12-01T00:51:38.075Z,19.83
2022-12-01T00:54:46.817Z,19.90
2022-12-01T00:57:56.404Z,19.73
2022-12-01T01:01:05.571Z,20.80
2022-12-01T01:04:13.908Z,21.93
2022-12-01T01:07:22.204Z,19.90
2022-12-01T01:10:30.400Z,19.40
2022-12-01T01:13:40.271Z,20.57
2022-12-01T01:16:48.842Z,21.27
2022-12-01T01:19:57.121Z,19.47
2022-12-01T01:23:05.343Z,21.60
2022-12-01T01:26:18.274Z,21.77
2022-12-01T01:29:27.933Z,21.23
2022-12-01T01:32:36.313Z,21.93
2022-12-01T01:35:44.477Z,22.20
2022-12-01T01:38:54.553Z,22.87
2022-12-01T01:42:02.732Z,22.40
2022-12-01T01:45:23.115Z,21.67
2022-12-01T01:48:31.701Z,19.60
2022-12-01T01:51:52.275Z,19.27
2022-12-01T01:55:01.705Z,16.40
2022-12-01T01:58:11.995Z,18.67
2022-12-01T02:01:22.796Z,17.00
2022-12-01T02:04:31.557Z,19.10
2022-12-01T02:07:42.075Z,17.47
2022-12-01T02:11:21.749Z,18.67
2022-12-01T02:14:56.452Z,17.83
2022-12-01T02:18:24.764Z,18.37
2022-12-01T02:21:53.145Z,18.13
2022-12-01T02:25:41.511Z,17.90
2022-12-01T02:29:24.131Z,19.13
2022-12-01T02:32:46.818Z,18.43
2022-12-01T02:36:05.050Z,18.20
2022-12-01T02:39:29.306Z,18.00
2022-12-01T02:42:53.569Z,17.80
2022-12-01T02:46:12.680Z,19.03
2022-12-01T02:49:29.121Z,19.10
2022-12-01T02:52:39.429Z,19.70
2022-12-01T02:55:50.624Z,20.00
2022-12-01T02:58:59.127Z,19.30
2022-12-01T03:02:19.882Z,19.50
2022-12-01T03:05:41.575Z,19.37
2022-12-01T03:09:04.304Z,18.13
2022-12-01T03:12:24.536Z,19.43
2022-12-01T03:15:40.823Z,22.03
2022-12-01T03:18:57.755Z,19.77
2022-12-01T03:22:15.647Z,20.27
2022-12-01T03:25:27.713Z,20.13
2022-12-01T03:28:47.071Z,18.67
2022-12-01T03:32:00.557Z,19.83
2022-12-01T03:35:16.508Z,21.10
2022-12-01T03:38:29.821Z,20.33
2022-12-01T03:41:43.559Z,20.80
2022-12-01T03:44:58.960Z,20.57
2022-12-01T03:48:08.465Z,20.47
2022-12-01T03:51:26.789Z,20.77
2022-12-01T03:54:50.274Z,20.07
2022-12-01T04:03:20.740Z,19.63
2022-12-01T04:06:28.963Z,19.73
2022-12-01T04:09:38.582Z,19.83
2022-12-01T04:12:47.043Z,19.40
2022-12-01T04:15:57.053Z,20.27
2022-12-01T04:19:05.372Z,20.27
2022-12-01T04:22:13.688Z,20.50
2022-12-01T04:25:23.318Z,19.30
2022-12-01T04:28:31.885Z,19.60
2022-12-01T04:31:40.356Z,18.23
2022-12-01T04:34:48.671Z,18.37
2022-12-01T04:37:57.040Z,18.47
2022-12-01T04:41:11.794Z,17.83
2022-12-01T04:44:20.004Z,18.97
2022-12-01T04:47:28.268Z,18.30
2022-12-01T04:50:36.516Z,18.70
2022-12-01T04:53:44.836Z,18.47
2022-12-01T04:56:54.679Z,18.20
2022-12-01T05:00:03.628Z,18.27
2022-12-01T05:03:15.008Z,18.80
2022-12-01T05:06:26.660Z,17.47
2022-12-01T05:09:34.948Z,17.63
2022-12-01T05:12:44.556Z,16.17
2022-12-01T05:15:53.104Z,15.87
2022-12-01T05:19:22.608Z,16.90
2022-12-01T05:22:57.222Z,16.83
2022-12-01T05:25:59.046Z,15.70
2022-12-01T05:29:09.497Z,15.67
2022-12-01T05:32:18.057Z,15.37
2022-12-01T05:35:26.488Z,16.03
2022-12-01T05:38:34.687Z,15.77
2022-12-01T05:41:42.909Z,16.43
2022-12-01T05:44:52.756Z,15.07
2022-12-01T05:48:03.104Z,16.27
2022-12-01T05:51:13.115Z,16.33
2022-12-01T05:54:21.310Z,14.97
2022-12-01T05:57:29.551Z,15.53
2022-12-01T06:00:45.703Z,17.00
2022-12-01T06:03:55.277Z,16.10
2022-12-01T06:07:03.766Z,16.70
2022-12-01T06:10:13.070Z,17.50
2022-12-01T06:13:21.274Z,16.93
2022-12-01T06:16:31.072Z,16.73
2022-12-01T06:19:39.308Z,18.00
2022-12-01T06:22:47.861Z,16.93
2022-12-01T06:25:56.086Z,16.30
2022-12-01T06:29:04.364Z,15.87
2022-12-01T06:32:14.051Z,16.53
2022-12-01T06:35:22.656Z,16.83
2022-12-01T06:38:34.469Z,15.67
2022-12-01T06:41:43.585Z,16.83
2022-12-01T06:44:52.085Z,15.83
2022-12-01T06:48:02.216Z,14.13
2022-12-01T06:51:11.119Z,16.20
2022-12-01T06:54:19.540Z,15.97
2022-12-01T06:57:28.066Z,15.97
2022-12-01T07:00:36.571Z,15.33
2022-12-01T07:03:49.146Z,17.07
2022-12-01T07:06:57.940Z,16.00
2022-12-01T07:10:07.607Z,16.43
2022-12-01T07:13:15.876Z,15.77
2022-12-01T07:16:24.696Z,17.73
2022-12-01T07:19:34.528Z,17.33
2022-12-01T07:22:43.222Z,16.83
2022-12-01T07:26:00.448Z,16.97
2022-12-01T07:29:09.059Z,14.70
2022-12-01T07:32:17.769Z,14.43
2022-12-01T07:35:27.435Z,14.33
2022-12-01T07:38:37.459Z,13.57
2022-12-01T07:41:45.699Z,14.53
2022-12-01T07:44:54.923Z,14.93
2022-12-01T07:48:03.217Z,13.27
2022-12-01T07:51:17.181Z,12.60
2022-12-01T07:54:26.203Z,12.63
2022-12-01T07:57:34.485Z,13.20
2022-12-01T08:00:42.773Z,14.40
2022-12-01T08:03:53.182Z,12.47
2022-12-01T08:07:02.742Z,13.40
2022-12-01T08:10:12.233Z,12.63
2022-12-01T08:13:21.636Z,13.27
2022-12-01T08:16:30.936Z,13.23
2022-12-01T08:19:39.211Z,14.20
2022-12-01T08:22:48.846Z,14.43
2022-12-01T08:25:57.584Z,14.20
2022-12-01T08:29:06.500Z,14.07
2022-12-01T08:32:14.825Z,13.10
2022-12-01T08:35:23.127Z,14.67
2022-12-01T08:38:33.309Z,14.37
2022-12-01T08:41:41.474Z,14.47
2022-12-01T08:44:49.871Z,13.33
2022-12-01T08:47:58.972Z,15.50
2022-12-01T08:51:12.514Z,13.23
2022-12-01T08:54:22.266Z,15.57
2022-12-01T08:57:31.440Z,14.17
2022-12-01T09:00:39.899Z,13.87
2022-12-01T09:03:48.711Z,15.67
2022-12-01T09:06:58.285Z,14.27
2022-12-01T09:10:10.086Z,15.53
2022-12-01T09:13:18.300Z,16.20
2022-12-01T09:16:26.561Z,14.23
2022-12-01T09:19:35.814Z,14.67
2022-12-01T09:22:44.070Z,15.07
2022-12-01T09:25:54.703Z,14.80
2022-12-01T09:29:07.338Z,14.20
2022-12-01T09:32:15.560Z,14.60
2022-12-01T09:35:23.886Z,14.37
2022-12-01T09:38:34.646Z,14.73
2022-12-01T09:41:49.318Z,14.67
2022-12-01T09:45:01.812Z,14.80
2022-12-01T09:48:26.389Z,15.00
2022-12-01T09:51:37.493Z,13.83
2022-12-01T09:54:46.665Z,15.17
2022-12-01T09:58:00.088Z,13.97
2022-12-01T10:01:16.926Z,12.47
2022-12-01T10:04:31.116Z,13.47
2022-12-01T10:07:47.251Z,13.90
2022-12-01T10:11:06.584Z,14.00
2022-12-01T10:14:20.786Z,13.60
2022-12-01T10:17:42.279Z,13.43
2022-12-01T10:21:02.327Z,13.67
2022-12-01T10:24:29.677Z,13.73
2022-12-01T10:27:55.775Z,12.77
2022-12-01T10:31:18.998Z,12.60
2022-12-01T10:34:29.997Z,13.40
2022-12-01T10:37:40.074Z,12.43
2022-12-01T10:40:50.741Z,12.17
2022-12-01T10:44:01.917Z,13.80
2022-12-01T10:47:21.612Z,12.77
2022-12-01T10:50:29.848Z,12.83
2022-12-01T10:53:38.074Z,13.13
2022-12-01T10:56:50.127Z,12.53
2022-12-01T11:00:02.303Z,13.07
2022-12-01T11:03:23.884Z,12.07
2022-12-01T11:06:33.956Z,12.50
2022-12-01T11:09:42.249Z,12.83
2022-12-01T11:12:57.889Z,11.53
2022-12-01T11:16:08.567Z,11.67
2022-12-01T11:19:33.650Z,10.97
2022-12-01T11:22:41.914Z,11.33
2022-12-01T11:26:02.347Z,10.00
2022-12-01T11:29:34.497Z,11.40
2022-12-01T11:32:53.947Z,11.73
2022-12-01T11:36:03.649Z,11.07
2022-12-01T11:39:27.516Z,10.60
2022-12-01T11:42:37.065Z,10.10
2022-12-01T11:45:46.582Z,10.60
2022-12-01T11:49:00.534Z,10.50
2022-12-01T11:52:27.204Z,10.53
2022-12-01T11:55:35.520Z,10.70
2022-12-01T11:58:44.677Z,11.00
2022-12-01T12:02:22.232Z,12.93
2022-12-01T12:10:12.052Z,11.73
2022-12-01T12:13:54.454Z,11.83
2022-12-01T12:17:39.094Z,12.60
2022-12-01T12:21:03.495Z,12.13
2022-12-01T12:24:39.087Z,11.07
2022-12-01T12:28:07.590Z,11.33
2022-12-01T12:31:29.239Z,11.27
2022-12-01T12:34:51.960Z,11.30
2022-12-01T12:38:29.630Z,10.97
2022-12-01T12:41:44.493Z,10.67
2022-12-01T12:45:03.811Z,12.03
2022-12-01T12:48:30.362Z,11.63
2022-12-01T12:51:46.004Z,11.03
2022-12-01T12:55:01.467Z,10.93
2022-12-01T12:58:19.448Z,11.37
2022-12-01T13:01:38.021Z,10.97
2022-12-01T13:04:55.349Z,11.87
2022-12-01T13:08:10.394Z,11.33
2022-12-01T13:11:25.615Z,12.77
2022-12-01T13:14:40.887Z,11.07
2022-12-01T13:17:56.430Z,11.77
2022-12-01T13:21:07.033Z,11.33
2022-12-01T13:24:26.534Z,11.23
2022-12-01T13:27:39.374Z,11.77
2022-12-01T13:31:03.278Z,10.70
2022-12-01T13:34:23.597Z,10.53
2022-12-01T13:37:36.663Z,11.80
2022-12-01T13:40:45.162Z,10.67
2022-12-01T13:44:05.478Z,11.77
2022-12-01T13:47:40.623Z,10.70
2022-12-01T13:51:03.159Z,10.97
2022-12-01T13:54:31.173Z,10.73
2022-12-01T13:57:44.236Z,10.53
2022-12-01T14:00:52.829Z,11.33
2022-12-01T14:04:24.077Z,15.17
2022-12-01T14:07:39.459Z,15.57
2022-12-01T14:10:56.293Z,11.40
2022-12-01T14:14:14.303Z,11.43
2022-12-01T14:17:30.958Z,11.77
2022-12-01T14:20:49.810Z,9.60
2022-12-01T14:24:06.688Z,11.33
2022-12-01T14:27:15.594Z,10.43
2022-12-01T14:31:05.684Z,10.73
2022-12-01T14:34:19.296Z,11.10
2022-12-01T14:37:42.282Z,10.97
2022-12-01T14:40:53.840Z,10.53
2022-12-01T14:44:13.675Z,11.27
2022-12-01T14:47:28.554Z,10.30
2022-12-01T14:50:46.630Z,10.00
2022-12-01T14:53:58.260Z,11.07
2022-12-01T14:57:13.670Z,11.20
2022-12-01T15:00:26.294Z,10.97
2022-12-01T15:03:41.874Z,11.40
2022-12-01T15:06:57.472Z,11.60
2022-12-01T15:10:07.627Z,11.60
2022-12-01T15:13:24.946Z,10.70
2022-12-01T15:16:41.358Z,12.77
2022-12-01T15:19:50.156Z,12.43
2022-12-01T15:22:59.922Z,13.27
2022-12-01T15:26:19.887Z,13.23
2022-12-01T15:29:32.935Z,12.03
2022-12-01T15:32:46.462Z,12.63
2022-12-01T15:35:56.480Z,11.40
2022-12-01T15:39:07.190Z,10.93
2022-12-01T15:42:25.434Z,12.00
2022-12-01T15:45:58.065Z,11.07
2022-12-01T15:49:17.720Z,11.73
2022-12-01T15:52:27.110Z,12.07
2022-12-01T15:55:39.484Z,13.50
2022-12-01T15:58:49.185Z,15.30
2022-12-01T16:01:59.562Z,13.13
2022-12-01T16:05:21.030Z,13.47
2022-12-01T16:08:30.261Z,13.00
2022-12-01T16:11:38.936Z,12.33
2022-12-01T16:14:55.429Z,12.13
2022-12-01T16:18:29.466Z,11.50
2022-12-01T16:21:45.901Z,12.37
2022-12-01T16:24:56.317Z,12.80
2022-12-01T16:28:07.389Z,13.03
2022-12-01T16:31:20.851Z,11.77
2022-12-01T16:34:45.931Z,12.43
2022-12-01T16:37:55.921Z,12.27
2022-12-01T16:41:17.814Z,12.60
2022-12-01T16:44:28.863Z,12.80
2022-12-01T16:47:38.840Z,13.07
2022-12-01T16:50:51.588Z,12.93
2022-12-01T16:54:04.800Z,12.20
2022-12-01T16:57:13.677Z,13.23
2022-12-01T17:00:23.434Z,13.47
2022-12-01T17:03:32.516Z,13.93
2022-12-01T17:06:42.463Z,14.00
2022-12-01T17:09:51.463Z,12.87
2022-12-01T17:13:00.967Z,13.13
2022-12-01T17:16:18.199Z,12.67
2022-12-01T17:19:29.457Z,12.50
2022-12-01T17:22:40.338Z,13.73
2022-12-01T17:25:49.655Z,13.00
2022-12-01T17:28:59.714Z,12.93
2022-12-01T17:32:09.166Z,12.47
2022-12-01T17:35:18.514Z,13.90
2022-12-01T17:38:28.337Z,13.93
2022-12-01T17:41:37.024Z,14.47
2022-12-01T17:44:45.484Z,13.90
2022-12-01T17:47:55.357Z,13.40
2022-12-01T17:51:05.602Z,14.60
2022-12-01T17:54:15.349Z,14.30
2022-12-01T17:57:24.092Z,15.07
2022-12-01T18:00:32.518Z,12.33
2022-12-01T18:03:40.980Z,12.80
2022-12-01T18:06:53.947Z,13.47
2022-12-01T18:10:04.612Z,13.33
2022-12-01T18:13:13.107Z,13.60
2022-12-01T18:16:24.427Z,12.63
2022-12-01T18:19:33.154Z,12.43
2022-12-01T18:22:41.506Z,12.50
2022-12-01T18:25:51.304Z,12.37
2022-12-01T18:29:02.553Z,13.10
2022-12-01T18:32:11.205Z,14.30
2022-12-01T18:35:19.949Z,14.47
2022-12-01T18:38:29.160Z,13.27
2022-12-01T18:41:43.489Z,13.37
2022-12-01T18:44:52.915Z,12.73
2022-12-01T18:48:02.323Z,13.80
2022-12-01T18:51:11.760Z,13.87
2022-12-01T18:54:20.091Z,14.17
2022-12-01T18:57:31.660Z,13.50
2022-12-01T19:00:43.137Z,12.50
2022-12-01T19:03:52.436Z,13.20
2022-12-01T19:07:00.793Z,12.13
2022-12-01T19:10:10.455Z,11.87
2022-12-01T19:13:20.148Z,11.60
2022-12-01T19:16:31.020Z,12.37
2022-12-01T19:19:39.513Z,12.33
2022-12-01T19:22:47.957Z,12.13
2022-12-01T19:25:56.476Z,11.80
2022-12-01T19:29:06.439Z,11.53
2022-12-01T19:32:14.860Z,13.43
2022-12-01T19:35:23.340Z,12.23
2022-12-01T19:38:31.718Z,13.07
2022-12-01T19:41:40.446Z,13.90
2022-12-01T19:44:50.769Z,14.53
2022-12-01T19:47:59.432Z,13.77
2022-12-01T19:51:08.819Z,13.13
2022-12-01T19:54:21.222Z,13.03
2022-12-01T19:57:29.780Z,13.73
2022-12-01T20:00:40.398Z,12.87
2022-12-01T20:03:51.127Z,13.13
2022-12-01T20:06:59.676Z,12.63
2022-12-01T20:10:08.762Z,13.63
2022-12-01T20:13:17.558Z,11.60
2022-12-01T20:16:30.488Z,12.70
2022-12-01T20:19:39.162Z,11.17
2022-12-01T20:22:47.543Z,12.63
2022-12-01T20:25:58.970Z,12.07
2022-12-01T20:29:10.122Z,13.13
2022-12-01T20:32:23.527Z,12.63
2022-12-01T20:35:32.211Z,13.30
2022-12-01T20:38:42.028Z,13.00
2022-12-01T20:41:51.052Z,14.30
2022-12-01T20:44:59.868Z,12.23
2022-12-01T20:48:10.327Z,13.40
2022-12-01T20:51:23.148Z,13.80
2022-12-01T20:54:31.695Z,13.13
2022-12-01T20:57:40.170Z,12.13
2022-12-01T21:00:48.439Z,12.13
2022-12-01T21:03:58.323Z,11.57
2022-12-01T21:07:07.193Z,12.67
2022-12-01T21:10:19.774Z,12.67
2022-12-01T21:13:42.217Z,11.20
2022-12-01T21:16:56.237Z,12.57
2022-12-01T21:20:21.707Z,12.03
2022-12-01T21:23:30.354Z,12.23
2022-12-01T21:26:42.061Z,12.07
2022-12-01T21:29:51.612Z,12.00
2022-12-01T21:33:28.499Z,12.77
2022-12-01T21:36:38.425Z,12.27
2022-12-01T21:39:49.829Z,12.90
2022-12-01T21:43:13.363Z,12.70
2022-12-01T21:46:21.835Z,13.10
2022-12-01T21:49:39.067Z,13.03
2022-12-01T21:52:49.186Z,12.73
2022-12-01T21:55:58.290Z,12.40
2022-12-01T21:59:18.193Z,12.77
2022-12-01T22:02:49.256Z,12.43
2022-12-01T22:06:36.035Z,11.97
2022-12-01T22:09:37.286Z,12.27
2022-12-01T22:12:46.190Z,13.53
2022-12-01T22:15:55.846Z,14.60
2022-12-01T22:19:25.903Z,13.63
2022-12-01T22:22:36.546Z,13.63
2022-12-01T22:25:48.363Z,14.33
2022-12-01T22:29:00.111Z,14.10
2022-12-01T22:32:50.515Z,15.13
2022-12-01T22:36:00.404Z,14.07
2022-12-01T22:39:26.904Z,15.00
2022-12-01T22:42:36.986Z,13.47
2022-12-01T22:45:47.763Z,15.60
2022-12-01T22:48:58.829Z,11.67
2022-12-01T22:52:19.350Z,10.77
2022-12-01T22:55:27.529Z,14.30
2022-12-01T22:58:42.245Z,14.87
2022-12-01T23:01:54.902Z,15.57
2022-12-01T23:05:21.662Z,16.10
2022-12-01T23:08:30.345Z,16.93
2022-12-01T23:11:38.694Z,15.23
2022-12-01T23:14:51.690Z,15.53
2022-12-01T23:18:11.111Z,14.90
2022-12-01T23:21:19.295Z,14.43
2022-12-01T23:24:32.337Z,14.43
2022-12-01T23:27:43.758Z,14.83
2022-12-01T23:30:59.840Z,15.10
2022-12-01T23:34:16.714Z,14.70
2022-12-01T23:37:35.315Z,15.17
2022-12-01T23:40:44.023Z,14.10
2022-12-01T23:43:52.477Z,14.43
2022-12-01T23:47:02.775Z,15.67
2022-12-01T23:50:23.361Z,14.33
2022-12-01T23:53:34.072Z,12.33
2022-12-01T23:56:42.335Z,12.93
2022-12-01T23:59:54.115Z,13.00
